This is the latest recevied weather packets stored in our database for station/object W3SN-13. If no packets are shown the sender has not sent any weather packets the latest 10 day(s).
| Time | Temp. | Humidity | Pressure | Rain* | Wind** | Luminosity | Snow |
|---|---|---|---|---|---|---|---|
| 1787882118 | 33.33° C | 40% | 1011.4 hPa | 0 mm | - | - | - |
| 1787881516 | 33.89° C | 39% | 1011.3 hPa | 0 mm | - | - | - |
| 1787880915 | 34.44° C | 38% | 1011.3 hPa | 0 mm | - | - | - |
| 1787880313 | 35° C | 37% | 1011.3 hPa | 0 mm | - | - | - |
| 1787879712 | 35° C | 36% | 1011.2 hPa | 0 mm | - | - | - |
| 1787879110 | 35.56° C | 36% | 1011.2 hPa | 0 mm | - | - | - |
| 1787878509 | 35.56° C | 35% | 1011.2 hPa | 0 mm | - | - | - |
| 1787877908 | 35.56° C | 35% | 1011.2 hPa | 0 mm | - | - | - |
| 1787877305 | 35.56° C | 34% | 1011.2 hPa | 0 mm | - | - | - |
| 1787876704 | 35.56° C | 33% | 1011.3 hPa | 0 mm | - | - | - |
| 1787876102 | 35.56° C | 34% | 1011.3 hPa | 0 mm | - | - | - |
| 1787875501 | 35.56° C | 34% | 1011.3 hPa | 0 mm | - | - | - |
| 1787874900 | 35° C | 35% | 1011.5 hPa | 0 mm | - | - | - |
| 1787874298 | 35° C | 35% | 1011.3 hPa | 0 mm | - | - | - |
| 1787873697 | 35° C | 35% | 1011.3 hPa | 0 mm | - | - | - |
| 1787873095 | 35° C | 36% | 1011.4 hPa | 0 mm | - | - | - |
| 1787872493 | 35° C | 37% | 1011.6 hPa | 0 mm | - | - | - |
| 1787871892 | 35° C | 37% | 1011.6 hPa | 0 mm | - | - | - |
| 1787871291 | 35° C | 34% | 1011.6 hPa | 0 mm | - | - | - |
| 1787870689 | 34.44° C | 34% | 1011.9 hPa | 0 mm | - | - | - |
| 1787870088 | 34.44° C | 36% | 1012.1 hPa | 0 mm | - | - | - |
| 1787869486 | 34.44° C | 42% | 1012.4 hPa | 0 mm | - | - | - |
| 1787868885 | 34.44° C | 43% | 1012.5 hPa | 0 mm | - | - | - |
| 1787868284 | 35° C | 42% | 1012.7 hPa | 0 mm | - | - | - |
| 1787867682 | 35° C | 40% | 1012.6 hPa | 0 mm | - | - | - |
* Rain latest hour (hover to see other rain measurements)
** Current wind speed in m/s (hover to see current wind gust speed)